Aviation Digital Data Service (ADDS)

Output produced by METARs form (2221 UTC 27 September 2016)
found at http://www.aviationweather.gov/adds/metars/
 
KBOS 272008Z 2720/2824 12007KT P6SM SCT030 BKN250 
     FM280600 05005KT 3SM BR BKN015 
     FM280800 05008KT 3SM -DZ BR OVC008 
     FM281200 05011G20KT 2SM -DZ BR OVC008 
     FM281500 04014G23KT P6SM -DZ OVC008